Time;durP1;ratioP1;P1;durP2;ratioP2;P2;SDS_P1;SDS_P2;PMS_P1;PMS_P2;Temp;Humidity;BMP_temperature;BMP_pressure;BME280_temperature;BME280_humidity;BME280_pressure;Samples;Min_cycle;Max_cycle;Signal;HPM_P1;HPM_P2
2024/02/17 00:02:21;;;;;;;;;;;153.90;2252.80;;;;;;4937706;29;19911;-74
2024/02/17 00:04:47;;;;;;;;;;;154.00;2252.80;;;;;;4940198;29;20464;-75
2024/02/17 00:07:13;;;;;;;;;;;154.00;2252.80;;;;;;4939163;29;19913;-75
2024/02/17 00:09:38;;;;;;;;;;;153.90;2252.80;;;;;;4929016;29;19917;-75
2024/02/17 00:12:04;;;;;;;;;;;153.90;2252.80;;;;;;4938349;29;19906;-74
2024/02/17 00:14:30;;;;;;;;;;;153.70;2252.80;;;;;;4938156;29;19962;-75
2024/02/17 00:16:55;;;;;;;;;;;153.70;2252.80;;;;;;4938268;29;19911;-74
2024/02/17 00:19:21;;;;;;;;;;;153.60;2252.80;;;;;;4938243;29;19964;-75
2024/02/17 00:21:46;;;;;;;;;;;128.90;2252.80;;;;;;4936549;29;19919;-74
2024/02/17 00:24:12;;;;;;;;;;;128.90;2252.80;;;;;;4938901;29;19914;-75
2024/02/17 00:26:38;;;;;;;;;;;128.80;2252.80;;;;;;4937649;29;20333;-75
2024/02/17 00:29:04;;;;;;;;;;;128.70;2252.80;;;;;;4926638;29;20401;-74
2024/02/17 00:31:30;;;;;;;;;;;128.80;2252.80;;;;;;4938090;29;19949;-74
2024/02/17 00:33:55;;;;;;;;;;;128.60;2252.80;;;;;;4938231;29;19907;-75
2024/02/17 00:36:21;;;;;;;;;;;128.50;2252.80;;;;;;4937947;29;20019;-76
2024/02/17 00:38:47;;;;;;;;;;;128.50;2252.80;;;;;;4935301;29;19914;-74
2024/02/17 00:41:12;;;;;;;;;;;128.40;2252.80;;;;;;4935244;29;19907;-74
2024/02/17 00:43:38;;;;;;;;;;;128.50;2252.80;;;;;;4931756;29;19914;-74
2024/02/17 00:46:04;;;;;;;;;;;128.50;2252.80;;;;;;4928616;29;19915;-74
2024/02/17 00:48:29;;;;;;;;;;;128.70;2252.80;;;;;;4937603;29;20369;-75
2024/02/17 00:50:56;;;;;;;;;;;128.70;2252.80;;;;;;4936073;29;19914;-74
2024/02/17 00:53:22;;;;;;;;;;;128.90;2252.80;;;;;;4936012;29;19967;-75
2024/02/17 00:55:48;;;;;;;;;;;128.80;2252.80;;;;;;4938058;29;19910;-74
2024/02/17 00:58:13;;;;;;;;;;;128.80;2252.80;;;;;;4937582;29;19906;-75
2024/02/17 01:00:39;;;;;;;;;;;128.90;2252.80;;;;;;4936753;29;20467;-75
2024/02/17 01:03:04;;;;;;;;;;;128.90;2252.80;;;;;;4921349;29;19907;-74
2024/02/17 01:05:30;;;;;;;;;;;128.80;2252.80;;;;;;4937051;29;19922;-75
2024/02/17 01:07:55;;;;;;;;;;;128.70;2252.80;;;;;;4935617;29;19913;-74
2024/02/17 01:10:21;;;;;;;;;;;128.60;2252.80;;;;;;4937245;29;19932;-77
2024/02/17 01:12:47;;;;;;;;;;;128.60;2252.80;;;;;;4938146;29;19969;-77
2024/02/17 01:15:12;;;;;;;;;;;128.50;2252.80;;;;;;4926703;29;19906;-79
2024/02/17 01:17:38;;;;;;;;;;;128.40;2252.80;;;;;;4937537;29;19907;-75
2024/02/17 01:20:04;;;;;;;;;;;128.40;2252.80;;;;;;4922974;29;19925;-76
2024/02/17 01:22:30;;;;;;;;;;;128.40;2252.80;;;;;;4937849;29;19986;-77
2024/02/17 01:24:55;;;;;;;;;;;128.30;2252.80;;;;;;4937475;29;19930;-76
2024/02/17 01:27:21;;;;;;;;;;;128.30;2252.80;;;;;;4936165;29;19906;-80
2024/02/17 01:29:46;;;;;;;;;;;128.40;2252.80;;;;;;4936281;29;19968;-77
2024/02/17 01:32:12;;;;;;;;;;;128.40;2252.80;;;;;;4937314;29;20002;-80
2024/02/17 01:34:38;;;;;;;;;;;128.50;2252.80;;;;;;4937343;29;19906;-76
2024/02/17 01:37:03;;;;;;;;;;;128.60;2252.80;;;;;;4933908;29;19910;-75
2024/02/17 01:39:29;;;;;;;;;;;128.60;2252.80;;;;;;4937361;29;20396;-80
2024/02/17 01:41:55;;;;;;;;;;;128.50;2252.80;;;;;;4928592;29;19950;-76
2024/02/17 01:44:20;;;;;;;;;;;128.30;2252.80;;;;;;4935256;29;19915;-80
2024/02/17 01:46:47;;;;;;;;;;;128.10;2252.80;;;;;;4936137;29;19918;-80
2024/02/17 01:49:13;;;;;;;;;;;128.00;2252.80;;;;;;4937187;29;19911;-79
2024/02/17 01:51:39;;;;;;;;;;;128.00;2252.80;;;;;;4935796;29;20010;-76
2024/02/17 01:54:05;;;;;;;;;;;128.10;2252.80;;;;;;4932549;29;19953;-79
2024/02/17 01:56:31;;;;;;;;;;;128.30;2252.80;;;;;;4918665;29;19911;-75
2024/02/17 01:58:57;;;;;;;;;;;128.20;2252.80;;;;;;4933032;29;19913;-76
2024/02/17 02:01:23;;;;;;;;;;;128.30;2252.80;;;;;;4918647;29;19908;-82
2024/02/17 02:03:49;;;;;;;;;;;128.30;2252.80;;;;;;4917391;29;19978;-81
2024/02/17 02:06:20;;;;;;;;;;;128.30;2252.80;;;;;;4918345;29;20425;-75
2024/02/17 02:08:49;;;;;;;;;;;128.40;2252.80;;;;;;4918290;29;19907;-77
2024/02/17 02:11:15;;;;;;;;;;;128.50;2252.80;;;;;;4933071;29;20353;-75
2024/02/17 02:13:41;;;;;;;;;;;128.50;2252.80;;;;;;4918454;29;19914;-83
2024/02/17 02:16:06;;;;;;;;;;;128.40;2252.80;;;;;;4917433;29;20380;-81
2024/02/17 02:18:33;;;;;;;;;;;128.20;2252.80;;;;;;4918289;29;20002;-78
2024/02/17 02:20:59;;;;;;;;;;;128.10;2252.80;;;;;;4916719;29;19927;-83
2024/02/17 02:23:24;;;;;;;;;;;103.30;2227.20;;;;;;4933118;29;19907;-80
2024/02/17 02:25:51;;;;;;;;;;;103.30;2227.20;;;;;;4933113;29;20305;-82
2024/02/17 02:28:16;;;;;;;;;;;103.30;2227.20;;;;;;4933289;29;19971;-82
2024/02/17 02:30:42;;;;;;;;;;;103.30;2227.20;;;;;;4918366;29;19911;-79
2024/02/17 02:33:07;;;;;;;;;;;128.00;2252.80;;;;;;4932560;29;19930;-80
2024/02/17 02:35:33;;;;;;;;;;;128.20;2252.80;;;;;;4932117;29;19907;-76
2024/02/17 02:37:58;;;;;;;;;;;128.20;2252.80;;;;;;4918137;29;19915;-81
2024/02/17 02:40:24;;;;;;;;;;;128.10;2252.80;;;;;;4932344;29;20281;-78
2024/02/17 02:42:50;;;;;;;;;;;103.30;2227.20;;;;;;4917901;29;19938;-77
2024/02/17 02:45:16;;;;;;;;;;;103.30;2227.20;;;;;;4916511;29;19915;-76
2024/02/17 02:47:41;;;;;;;;;;;103.30;2227.20;;;;;;4917850;29;19907;-76
2024/02/17 02:50:08;;;;;;;;;;;103.10;2227.20;;;;;;4931784;29;19982;-77
2024/02/17 02:52:34;;;;;;;;;;;103.00;2227.20;;;;;;4917828;29;20388;-76
2024/02/17 02:54:59;;;;;;;;;;;103.00;2227.20;;;;;;4917537;29;19911;-75
2024/02/17 02:57:25;;;;;;;;;;;103.20;2227.20;;;;;;4932010;29;19913;-76
2024/02/17 02:59:51;;;;;;;;;;;103.20;2227.20;;;;;;4932009;29;19917;-76
2024/02/17 03:02:17;;;;;;;;;;;103.20;2227.20;;;;;;4917661;29;19907;-83
2024/02/17 03:04:42;;;;;;;;;;;103.20;2227.20;;;;;;4917499;29;19947;-78
2024/02/17 03:07:08;;;;;;;;;;;103.30;2227.20;;;;;;4917822;29;19975;-76
2024/02/17 03:09:33;;;;;;;;;;;103.20;2227.20;;;;;;4932314;29;19914;-82
2024/02/17 03:11:59;;;;;;;;;;;103.30;2227.20;;;;;;4917574;29;20365;-81
2024/02/17 03:14:25;;;;;;;;;;;103.20;2227.20;;;;;;4932307;29;19962;-81
2024/02/17 03:16:50;;;;;;;;;;;103.20;2227.20;;;;;;4916715;29;19911;-76
2024/02/17 03:19:16;;;;;;;;;;;103.20;2227.20;;;;;;4931655;29;19918;-77
2024/02/17 03:21:41;;;;;;;;;;;103.30;2227.20;;;;;;4916586;29;19918;-77
2024/02/17 03:24:07;;;;;;;;;;;103.20;2227.20;;;;;;4917465;29;19915;-76
2024/02/17 03:26:33;;;;;;;;;;;103.10;2227.20;;;;;;4916752;29;19914;-82
2024/02/17 03:28:59;;;;;;;;;;;103.20;2227.20;;;;;;4917623;29;19993;-83
2024/02/17 03:31:24;;;;;;;;;;;103.20;2227.20;;;;;;4917620;29;19907;-78
2024/02/17 03:33:54;;;;;;;;;;;103.30;2227.20;;;;;;4916234;29;19980;-79
2024/02/17 03:36:20;;;;;;;;;;;103.30;2227.20;;;;;;4932592;29;19911;-79
2024/02/17 03:38:45;;;;;;;;;;;103.20;2227.20;;;;;;4917156;29;19994;-80
2024/02/17 03:41:11;;;;;;;;;;;103.20;2227.20;;;;;;4931733;29;19994;-80
2024/02/17 03:43:37;;;;;;;;;;;103.20;2227.20;;;;;;4916320;29;20349;-78
2024/02/17 03:46:02;;;;;;;;;;;103.10;2227.20;;;;;;4917418;29;19915;-84
2024/02/17 03:48:28;;;;;;;;;;;103.20;2227.20;;;;;;4919189;29;19907;-81
2024/02/17 03:50:53;;;;;;;;;;;103.30;2227.20;;;;;;4919481;29;19919;-82
2024/02/17 03:53:19;;;;;;;;;;;103.20;2227.20;;;;;;4920920;29;19970;-81
2024/02/17 03:55:45;;;;;;;;;;;103.20;2227.20;;;;;;4919819;29;19907;-79
2024/02/17 03:58:11;;;;;;;;;;;128.20;2252.80;;;;;;4921013;29;19907;-83
2024/02/17 04:00:37;;;;;;;;;;;103.10;2227.20;;;;;;4920737;29;19907;-83
2024/02/17 04:03:02;;;;;;;;;;;103.00;2227.20;;;;;;4935603;29;19914;-83
2024/02/17 04:05:28;;;;;;;;;;;103.00;2227.20;;;;;;4919412;29;19915;-81
2024/02/17 04:07:53;;;;;;;;;;;102.90;2227.20;;;;;;4919571;29;19914;-83
2024/02/17 04:10:19;;;;;;;;;;;102.90;2227.20;;;;;;4919576;29;20277;-79
2024/02/17 04:12:45;;;;;;;;;;;102.90;2227.20;;;;;;4919341;29;19958;-81
2024/02/17 04:15:10;;;;;;;;;;;102.90;2227.20;;;;;;4920779;29;19907;-78
2024/02/17 04:17:36;;;;;;;;;;;102.80;2227.20;;;;;;4919537;29;19907;-82
2024/02/17 04:20:03;;;;;;;;;;;102.80;2227.20;;;;;;4919164;29;19919;-83
2024/02/17 04:22:29;;;;;;;;;;;102.60;2227.20;;;;;;4935016;29;19946;-81
2024/02/17 04:24:55;;;;;;;;;;;102.50;2227.20;;;;;;4919287;29;19985;-83
2024/02/17 04:27:21;;;;;;;;;;;102.50;2227.20;;;;;;4919276;29;19907;-77
2024/02/17 04:29:46;;;;;;;;;;;102.50;2227.20;;;;;;4920199;29;20250;-80
2024/02/17 04:32:12;;;;;;;;;;;102.50;2227.20;;;;;;4919215;29;20001;-81
2024/02/17 04:34:38;;;;;;;;;;;102.40;2227.20;;;;;;4934992;29;19930;-77
2024/02/17 04:37:03;;;;;;;;;;;77.70;2227.20;;;;;;4919083;29;20348;-82
2024/02/17 04:39:29;;;;;;;;;;;77.70;2227.20;;;;;;4919041;29;19911;-78
2024/02/17 04:41:54;;;;;;;;;;;77.70;2227.20;;;;;;4919996;29;19915;-78
2024/02/17 04:44:20;;;;;;;;;;;102.40;2227.20;;;;;;4919968;29;20357;-84
2024/02/17 04:46:46;;;;;;;;;;;102.40;2227.20;;;;;;4918975;29;19954;-80
2024/02/17 04:49:12;;;;;;;;;;;102.40;2227.20;;;;;;4918859;29;20371;-79
2024/02/17 04:51:38;;;;;;;;;;;102.40;2227.20;;;;;;4918871;29;19911;-83
2024/02/17 04:54:03;;;;;;;;;;;102.40;2227.20;;;;;;4918767;29;20376;-77
2024/02/17 04:56:29;;;;;;;;;;;102.40;2227.20;;;;;;4918878;29;20392;-79
2024/02/17 04:58:54;;;;;;;;;;;77.70;2227.20;;;;;;4918377;29;19907;-82
2024/02/17 05:01:22;;;;;;;;;;;77.60;2227.20;;;;;;4918537;29;19947;-82
2024/02/17 05:03:48;;;;;;;;;;;102.40;2227.20;;;;;;4919864;29;19907;-81
2024/02/17 05:06:16;;;;;;;;;;;77.70;2227.20;;;;;;4918106;29;20065;-75
2024/02/17 05:08:45;;;;;;;;;;;77.50;2227.20;;;;;;4917929;29;19963;-76
2024/02/17 05:11:15;;;;;;;;;;;77.70;2227.20;;;;;;4918055;29;19982;-78
2024/02/17 05:13:41;;;;;;;;;;;77.50;2227.20;;;;;;4918544;29;20280;-77
2024/02/17 05:16:07;;;;;;;;;;;77.50;2227.20;;;;;;4919560;29;19907;-84
2024/02/17 05:18:33;;;;;;;;;;;77.60;2227.20;;;;;;4918330;29;19907;-77
2024/02/17 05:20:59;;;;;;;;;;;77.60;2227.20;;;;;;4931911;29;20062;-77
2024/02/17 05:23:25;;;;;;;;;;;77.60;2227.20;;;;;;4926964;29;19966;-79
2024/02/17 05:25:51;;;;;;;;;;;77.40;2227.20;;;;;;4940682;29;19919;-77
2024/02/17 05:28:16;;;;;;;;;;;77.30;2227.20;;;;;;4922000;29;19910;-79
2024/02/17 05:30:42;;;;;;;;;;;77.30;2227.20;;;;;;4930992;29;19910;-81
2024/02/17 05:33:08;;;;;;;;;;;77.30;2227.20;;;;;;4923901;29;20361;-82
2024/02/17 05:35:33;;;;;;;;;;;77.20;2227.20;;;;;;4937181;29;19907;-80
2024/02/17 05:37:59;;;;;;;;;;;77.10;2227.20;;;;;;4933837;29;19911;-80
2024/02/17 05:40:25;;;;;;;;;;;77.10;2227.20;;;;;;4932358;29;19913;-79
2024/02/17 05:42:50;;;;;;;;;;;77.10;2227.20;;;;;;4931728;29;20001;-79
2024/02/17 05:45:16;;;;;;;;;;;77.00;2227.20;;;;;;4927440;29;19915;-81
2024/02/17 05:47:42;;;;;;;;;;;77.00;2227.20;;;;;;4940982;29;19906;-76
2024/02/17 05:50:07;;;;;;;;;;;76.80;2227.20;;;;;;4939732;29;20416;-82
2024/02/17 05:52:33;;;;;;;;;;;76.90;2227.20;;;;;;4916118;29;19911;-75
2024/02/17 05:54:59;;;;;;;;;;;76.90;2227.20;;;;;;4932025;29;20054;-75
2024/02/17 05:57:24;;;;;;;;;;;76.90;2227.20;;;;;;4936942;29;19961;-74
2024/02/17 05:59:52;;;;;;;;;;;76.90;2227.20;;;;;;4932838;29;19907;-75
2024/02/17 06:02:17;;;;;;;;;;;77.00;2227.20;;;;;;4931631;29;19949;-75
2024/02/17 06:04:43;;;;;;;;;;;77.10;2227.20;;;;;;4933122;29;20020;-75
2024/02/17 06:07:09;;;;;;;;;;;77.20;2227.20;;;;;;4927990;29;19912;-76
2024/02/17 06:09:34;;;;;;;;;;;77.40;2227.20;;;;;;4929615;29;19911;-79
2024/02/17 06:12:00;;;;;;;;;;;77.50;2227.20;;;;;;4933300;29;19910;-77
2024/02/17 06:14:26;;;;;;;;;;;77.70;2227.20;;;;;;4933946;29;20003;-75
2024/02/17 06:16:51;;;;;;;;;;;102.50;2227.20;;;;;;4936977;29;19910;-79
2024/02/17 06:22:01;;;;;;;;;;;102.90;2227.20;;;;;;4936886;29;19958;-81
2024/02/17 06:24:27;;;;;;;;;;;103.10;2227.20;;;;;;4932601;29;20284;-78
2024/02/17 06:26:52;;;;;;;;;;;103.30;2227.20;;;;;;4928361;29;19907;-79
2024/02/17 06:29:18;;;;;;;;;;;128.00;2252.80;;;;;;4922673;29;19911;-77
2024/02/17 06:31:44;;;;;;;;;;;128.10;2252.80;;;;;;4928483;29;19910;-78
2024/02/17 06:34:11;;;;;;;;;;;128.00;2252.80;;;;;;4926211;29;20424;-78
2024/02/17 06:36:37;;;;;;;;;;;128.10;2252.80;;;;;;4922145;29;19977;-80
2024/02/17 06:39:03;;;;;;;;;;;128.20;2252.80;;;;;;4934955;29;20365;-80
2024/02/17 06:41:28;;;;;;;;;;;128.40;2252.80;;;;;;4936323;29;20002;-76
2024/02/17 06:43:54;;;;;;;;;;;128.70;2252.80;;;;;;4921547;29;20361;-77
2024/02/17 06:46:20;;;;;;;;;;;128.90;2252.80;;;;;;4924723;29;19907;-82
2024/02/17 06:48:50;;;;;;;;;;;153.80;2252.80;;;;;;4936723;29;19907;-82
2024/02/17 06:51:17;;;;;;;;;;;154.00;2252.80;;;;;;4918384;29;19915;-76
2024/02/17 06:53:42;;;;;;;;;;;154.10;2252.80;;;;;;4927550;29;19906;-75
2024/02/17 06:56:08;;;;;;;;;;;154.20;2252.80;;;;;;4926248;29;19907;-81
2024/02/17 06:58:34;;;;;;;;;;;154.10;2252.80;;;;;;4935885;29;19997;-77
2024/02/17 07:01:00;;;;;;;;;;;154.40;2252.80;;;;;;4936062;29;19918;-79
2024/02/17 07:03:25;;;;;;;;;;;154.40;2252.80;;;;;;4932474;29;19907;-80
2024/02/17 07:05:51;;;;;;;;;;;154.50;2252.80;;;;;;4929800;29;20373;-75
2024/02/17 07:08:16;;;;;;;;;;;154.50;2252.80;;;;;;4931232;29;20410;-74
2024/02/17 07:10:42;;;;;;;;;;;179.20;2252.80;;;;;;4935296;29;20003;-75
2024/02/17 07:13:09;;;;;;;;;;;180.00;2252.80;;;;;;4926196;29;19906;-75
2024/02/17 07:15:35;;;;;;;;;;;179.80;2252.80;;;;;;4936074;29;19950;-82
2024/02/17 07:18:01;;;;;;;;;;;180.10;2252.80;;;;;;4922313;29;19962;-77
2024/02/17 07:20:28;;;;;;;;;;;204.90;2252.80;;;;;;4924882;29;19958;-79
2024/02/17 07:22:53;;;;;;;;;;;204.90;2252.80;;;;;;4935954;29;19911;-77
2024/02/17 07:25:19;;;;;;;;;;;205.10;2252.80;;;;;;4939881;29;19918;-77
2024/02/17 07:27:46;;;;;;;;;;;205.00;2252.80;;;;;;4938801;29;19914;-83
2024/02/17 07:30:12;;;;;;;;;;;205.10;2252.80;;;;;;4929750;29;19910;-79
2024/02/17 07:32:38;;;;;;;;;;;205.10;2252.80;;;;;;4922302;29;19907;-75
2024/02/17 07:35:04;;;;;;;;;;;205.10;2252.80;;;;;;4938431;29;19907;-83
2024/02/17 07:37:29;;;;;;;;;;;205.30;2252.80;;;;;;4939027;29;19911;-78
2024/02/17 07:39:55;;;;;;;;;;;205.50;2252.80;;;;;;4935014;29;19907;-75
2024/02/17 07:42:20;;;;;;;;;;;205.70;2252.80;;;;;;4936670;29;19917;-74
2024/02/17 07:44:46;;;;;;;;;;;230.50;2252.80;;;;;;4939168;29;20369;-79
2024/02/17 07:47:12;;;;;;;;;;;230.70;2252.80;;;;;;4923086;29;19907;-76
2024/02/17 07:49:38;;;;;;;;;;;230.90;2252.80;;;;;;4937914;29;20361;-75
2024/02/17 07:52:03;;;;;;;;;;;231.10;2252.80;;;;;;4938808;29;19911;-74
2024/02/17 07:54:29;;;;;;;;;;;231.20;2252.80;;;;;;4939070;29;20372;-74
2024/02/17 07:56:55;;;;;;;;;;;256.00;2252.80;;;;;;4928352;29;19906;-81
2024/02/17 07:59:20;;;;;;;;;;;256.20;2252.80;;;;;;4936874;29;19959;-76
2024/02/17 08:01:46;;;;;;;;;;;256.30;2252.80;;;;;;4923844;29;19914;-74
2024/02/17 08:04:12;;;;;;;;;;;256.50;2252.80;;;;;;4937080;29;20293;-74
2024/02/17 08:06:37;;;;;;;;;;;256.90;2252.80;;;;;;4937674;29;19910;-75
2024/02/17 08:09:03;;;;;;;;;;;256.90;2252.80;;;;;;4937685;29;19942;-81
2024/02/17 08:11:29;;;;;;;;;;;281.60;2278.40;;;;;;4922749;29;19993;-77
2024/02/17 08:13:54;;;;;;;;;;;281.80;2278.40;;;;;;4937183;29;19914;-80
2024/02/17 08:16:22;;;;;;;;;;;282.00;2278.40;;;;;;4929692;29;19911;-76
2024/02/17 08:18:47;;;;;;;;;;;281.90;2278.40;;;;;;4929103;29;19915;-80
2024/02/17 08:21:13;;;;;;;;;;;282.00;2278.40;;;;;;4937987;29;19923;-79
2024/02/17 08:23:42;;;;;;;;;;;282.00;2278.40;;;;;;4938330;29;19950;-74
2024/02/17 08:26:11;;;;;;;;;;;282.00;2278.40;;;;;;4937733;29;19918;-74
2024/02/17 08:28:39;;;;;;;;;;;282.00;2278.40;;;;;;4938198;29;19922;-77
2024/02/17 08:31:04;;;;;;;;;;;282.10;2278.40;;;;;;4920848;29;20005;-78
2024/02/17 08:33:30;;;;;;;;;;;282.00;2278.40;;;;;;4926447;29;20330;-77
2024/02/17 08:35:56;;;;;;;;;;;282.10;2278.40;;;;;;4930744;29;19911;-76
2024/02/17 08:38:21;;;;;;;;;;;282.00;2278.40;;;;;;4924935;29;19913;-77
2024/02/17 08:40:47;;;;;;;;;;;282.00;2278.40;;;;;;4933216;29;19957;-79
2024/02/17 08:43:12;;;;;;;;;;;282.00;2278.40;;;;;;4919661;29;19907;-78
2024/02/17 08:45:38;;;;;;;;;;;282.10;2278.40;;;;;;4927185;29;19921;-76
2024/02/17 08:48:04;;;;;;;;;;;282.30;2278.40;;;;;;4936921;29;19914;-78
2024/02/17 08:50:29;;;;;;;;;;;282.40;2278.40;;;;;;4927561;29;19966;-75
2024/02/17 08:52:55;;;;;;;;;;;307.20;2304.00;;;;;;4937155;29;19994;-78
2024/02/17 08:55:22;;;;;;;;;;;307.30;2304.00;;;;;;4937540;29;20006;-79
2024/02/17 08:57:48;;;;;;;;;;;307.50;2304.00;;;;;;4930338;29;19907;-78
2024/02/17 09:00:14;;;;;;;;;;;307.60;2304.00;;;;;;4936520;29;19918;-76
2024/02/17 09:02:39;;;;;;;;;;;307.80;2304.00;;;;;;4922999;29;20364;-76
2024/02/17 09:05:05;;;;;;;;;;;307.80;2304.00;;;;;;4936452;29;20376;-76
2024/02/17 09:07:31;;;;;;;;;;;308.00;2304.00;;;;;;4937490;29;19907;-76
2024/02/17 09:09:57;;;;;;;;;;;308.00;2304.00;;;;;;4934448;29;19910;-76
2024/02/17 09:12:23;;;;;;;;;;;308.00;2304.00;;;;;;4937451;29;19911;-76
2024/02/17 09:14:48;;;;;;;;;;;308.10;2304.00;;;;;;4937488;29;20273;-78
2024/02/17 09:17:16;;;;;;;;;;;308.10;2304.00;;;;;;4937515;29;19910;-76
2024/02/17 09:19:42;;;;;;;;;;;308.10;2304.00;;;;;;4924041;29;19932;-75
2024/02/17 09:22:07;;;;;;;;;;;332.80;2329.60;;;;;;4938415;29;19921;-75
2024/02/17 09:24:33;;;;;;;;;;;332.90;2329.60;;;;;;4937684;29;19915;-75
2024/02/17 09:27:01;;;;;;;;;;;333.00;2278.40;;;;;;4934733;29;19914;-77
2024/02/17 09:29:27;;;;;;;;;;;333.10;2252.80;;;;;;4936892;29;19907;-76
2024/02/17 09:31:53;;;;;;;;;;;333.20;2201.60;;;;;;4937613;29;19937;-79
2024/02/17 09:34:19;;;;;;;;;;;333.40;2176.00;;;;;;4920834;29;19918;-77
2024/02/17 09:36:45;;;;;;;;;;;333.50;2150.40;;;;;;4937714;29;20309;-80
2024/02/17 09:39:10;;;;;;;;;;;333.70;2201.60;;;;;;4936288;29;20337;-76
2024/02/17 09:41:36;;;;;;;;;;;358.50;2099.20;;;;;;4936280;29;19949;-77
2024/02/17 09:44:02;;;;;;;;;;;358.70;2048.00;;;;;;4938086;29;19913;-81
2024/02/17 09:46:28;;;;;;;;;;;358.90;2022.40;;;;;;4936653;29;19961;-80
2024/02/17 09:48:57;;;;;;;;;;;359.30;1971.20;;;;;;4933438;29;20018;-78
2024/02/17 09:51:24;;;;;;;;;;;359.20;1920.00;;;;;;4936825;29;19929;-77
2024/02/17 09:53:49;;;;;;;;;;;384.00;1894.40;;;;;;4937931;29;19965;-80
2024/02/17 09:56:15;;;;;;;;;;;384.20;1894.40;;;;;;4933437;29;20342;-79
2024/02/17 09:58:41;;;;;;;;;;;384.30;1843.20;;;;;;4930529;29;20361;-81
2024/02/17 10:01:07;;;;;;;;;;;384.70;1817.60;;;;;;4937892;29;19914;-78
2024/02/17 10:03:34;;;;;;;;;;;384.90;1792.00;;;;;;4937137;29;19913;-75
2024/02/17 10:06:13;;;;;;;;;;;409.60;1817.60;;;;;;4935968;29;19919;-79
2024/02/17 10:08:39;;;;;;;;;;;409.90;1766.40;;;;;;4935625;29;19907;-77
2024/02/17 10:11:14;;;;;;;;;;;410.00;1740.80;;;;;;4935839;29;19914;-80
2024/02/17 10:13:41;;;;;;;;;;;410.10;1740.80;;;;;;4936152;29;19914;-79
2024/02/17 10:16:13;;;;;;;;;;;410.20;1715.20;;;;;;4935932;29;19942;-76
2024/02/17 10:18:43;;;;;;;;;;;435.20;1664.00;;;;;;4939561;29;20001;-80
2024/02/17 10:21:09;;;;;;;;;;;435.30;1664.00;;;;;;4940782;29;19923;-76
2024/02/17 10:23:34;;;;;;;;;;;435.60;1638.40;;;;;;4934318;29;20349;-75
2024/02/17 10:26:00;;;;;;;;;;;435.60;1638.40;;;;;;4936109;29;19993;-77
2024/02/17 10:28:27;;;;;;;;;;;;;;;;;;4935727;29;19911;-80
2024/02/17 10:30:54;;;;;;;;;;;436.10;1612.80;;;;;;4936176;29;19907;-77
2024/02/17 10:33:20;;;;;;;;;;;460.80;1587.20;;;;;;4936765;29;19915;-80
2024/02/17 10:35:49;;;;;;;;;;;461.10;1587.20;;;;;;4936545;29;19978;-75
2024/02/17 10:38:14;;;;;;;;;;;;;;;;;;4926834;29;20372;-78
2024/02/17 10:40:41;;;;;;;;;;;461.40;1561.60;;;;;;4936187;29;19911;-76
2024/02/17 10:43:06;;;;;;;;;;;461.10;1587.20;;;;;;4936210;29;19907;-76
2024/02/17 10:45:32;;;;;;;;;;;461.40;1536.00;;;;;;4935878;29;19921;-75
2024/02/17 10:48:04;;;;;;;;;;;461.30;1536.00;;;;;;4935994;29;19906;-81
2024/02/17 10:50:32;;;;;;;;;;;461.40;1510.40;;;;;;4922448;29;19915;-80
2024/02/17 10:53:21;;;;;;;;;;;486.40;1536.00;;;;;;4936175;29;19918;-75
2024/02/17 10:55:49;;;;;;;;;;;486.50;1484.80;;;;;;4935785;29;19906;-76
2024/02/17 10:58:16;;;;;;;;;;;486.60;1459.20;;;;;;4935410;29;19907;-76
2024/02/17 11:00:44;;;;;;;;;;;461.70;1459.20;;;;;;4935074;29;20280;-78
2024/02/17 11:03:12;;;;;;;;;;;486.50;1459.20;;;;;;4935886;29;19911;-76
2024/02/17 11:05:41;;;;;;;;;;;486.40;1459.20;;;;;;4931342;29;19970;-77
2024/02/17 11:08:07;;;;;;;;;;;486.70;1459.20;;;;;;4934034;29;19907;-75
2024/02/17 11:10:32;;;;;;;;;;;486.40;1459.20;;;;;;4934109;29;19914;-76
2024/02/17 11:12:59;;;;;;;;;;;486.70;1433.60;;;;;;4935948;29;20284;-79
2024/02/17 11:15:25;;;;;;;;;;;486.80;1408.00;;;;;;4935459;29;20380;-75
2024/02/17 11:17:59;;;;;;;;;;;486.80;1408.00;;;;;;4935604;29;19917;-76
2024/02/17 11:20:25;;;;;;;;;;;487.00;1408.00;;;;;;4933960;29;19925;-77
2024/02/17 11:22:51;;;;;;;;;;;487.10;1408.00;;;;;;4934194;29;19925;-77
2024/02/17 11:25:31;;;;;;;;;;;487.10;1433.60;;;;;;4934852;29;19922;-81
2024/02/17 11:28:00;;;;;;;;;;;487.20;1408.00;;;;;;4936390;29;19910;-76
2024/02/17 11:30:26;;;;;;;;;;;487.20;1408.00;;;;;;4921935;29;19921;-80
2024/02/17 11:32:58;;;;;;;;;;;487.00;1382.40;;;;;;4935884;29;20295;-80
2024/02/17 11:35:25;;;;;;;;;;;487.30;1356.80;;;;;;4918515;29;19906;-81
2024/02/17 11:37:53;;;;;;;;;;;487.10;1382.40;;;;;;4924587;29;19918;-77
2024/02/17 11:40:20;;;;;;;;;;;486.70;1433.60;;;;;;4935128;29;19907;-75
2024/02/17 11:42:46;;;;;;;;;;;486.90;1382.40;;;;;;4918281;29;19906;-79
2024/02/17 11:45:12;;;;;;;;;;;487.10;1408.00;;;;;;4914251;29;20373;-78
2024/02/17 11:47:38;;;;;;;;;;;486.80;1408.00;;;;;;4935609;29;19930;-77
2024/02/17 11:50:08;;;;;;;;;;;486.80;1408.00;;;;;;4926406;29;19911;-79
2024/02/17 11:52:34;;;;;;;;;;;486.90;1408.00;;;;;;4931354;29;20385;-80
2024/02/17 11:54:59;;;;;;;;;;;487.10;1382.40;;;;;;4930214;29;19941;-78
2024/02/17 11:57:28;;;;;;;;;;;487.10;1382.40;;;;;;4933405;29;19954;-80
2024/02/17 11:59:54;;;;;;;;;;;487.10;1356.80;;;;;;4925513;29;19907;-77
2024/02/17 12:02:19;;;;;;;;;;;487.30;1356.80;;;;;;4915274;29;20368;-81
2024/02/17 12:04:45;;;;;;;;;;;487.30;1382.40;;;;;;4935306;29;20364;-78
2024/02/17 12:07:11;;;;;;;;;;;487.30;1356.80;;;;;;4935286;29;19922;-78
2024/02/17 12:09:37;;;;;;;;;;;512.20;1331.20;;;;;;4936933;29;19913;-77
2024/02/17 12:12:03;;;;;;;;;;;487.30;1382.40;;;;;;4938531;29;20045;-80
2024/02/17 12:14:29;;;;;;;;;;;512.00;1356.80;;;;;;4938829;29;19997;-80
2024/02/17 12:16:55;;;;;;;;;;;512.10;1331.20;;;;;;4938372;29;19906;-77
2024/02/17 12:19:23;;;;;;;;;;;487.30;1356.80;;;;;;4939022;29;20388;-80
2024/02/17 12:21:49;;;;;;;;;;;487.30;1331.20;;;;;;4937135;29;20274;-75
2024/02/17 12:24:15;;;;;;;;;;;487.00;1356.80;;;;;;4931189;29;20018;-76
2024/02/17 12:26:41;;;;;;;;;;;487.20;1356.80;;;;;;4938435;29;19907;-79
2024/02/17 12:29:07;;;;;;;;;;;487.20;1331.20;;;;;;4938169;29;20013;-77
2024/02/17 12:31:37;;;;;;;;;;;487.30;1356.80;;;;;;4937600;29;20345;-83
2024/02/17 12:34:05;;;;;;;;;;;487.30;1331.20;;;;;;4938192;29;19907;-77
2024/02/17 12:36:31;;;;;;;;;;;512.10;1305.60;;;;;;4938111;29;19966;-76
2024/02/17 12:38:57;;;;;;;;;;;512.30;1305.60;;;;;;4924102;29;19906;-79
2024/02/17 12:41:24;;;;;;;;;;;512.30;1280.00;;;;;;4936779;29;19907;-77
2024/02/17 12:43:51;;;;;;;;;;;512.30;1331.20;;;;;;4936701;29;19914;-77
2024/02/17 12:46:19;;;;;;;;;;;487.30;1331.20;;;;;;4937680;29;19915;-77
2024/02/17 12:48:51;;;;;;;;;;;512.00;1305.60;;;;;;4937101;29;19929;-76
2024/02/17 12:51:23;;;;;;;;;;;487.30;1305.60;;;;;;4935467;29;19937;-75
2024/02/17 12:53:49;;;;;;;;;;;487.30;1331.20;;;;;;4937655;29;19910;-76
2024/02/17 12:56:15;;;;;;;;;;;487.20;1331.20;;;;;;4937650;29;20237;-76
2024/02/17 12:58:41;;;;;;;;;;;487.20;1356.80;;;;;;4936958;29;20372;-76
2024/02/17 13:01:06;;;;;;;;;;;486.90;1356.80;;;;;;4937238;29;20038;-76
2024/02/17 13:03:32;;;;;;;;;;;486.90;1356.80;;;;;;4937584;29;19911;-75
2024/02/17 13:05:59;;;;;;;;;;;486.80;1356.80;;;;;;4936213;29;19962;-75
2024/02/17 13:08:25;;;;;;;;;;;487.00;1331.20;;;;;;4937507;29;19907;-75
2024/02/17 13:10:54;;;;;;;;;;;487.10;1331.20;;;;;;4933166;29;20058;-76
2024/02/17 13:13:20;;;;;;;;;;;487.00;1305.60;;;;;;4936415;29;19918;-78
2024/02/17 13:15:46;;;;;;;;;;;487.10;1331.20;;;;;;4934476;29;19914;-80
2024/02/17 13:18:11;;;;;;;;;;;487.10;1305.60;;;;;;4937190;29;20001;-75
2024/02/17 13:20:37;;;;;;;;;;;487.10;1305.60;;;;;;4936307;29;19925;-76
2024/02/17 13:23:03;;;;;;;;;;;486.90;1331.20;;;;;;4920408;29;19910;-77
2024/02/17 13:25:29;;;;;;;;;;;486.80;1356.80;;;;;;4935448;29;19922;-77
2024/02/17 13:27:54;;;;;;;;;;;486.50;1331.20;;;;;;4937711;29;19917;-75
2024/02/17 13:30:20;;;;;;;;;;;461.70;1356.80;;;;;;4934947;29;20372;-77
2024/02/17 13:32:46;;;;;;;;;;;461.70;1382.40;;;;;;4937071;29;19961;-76
2024/02/17 13:35:13;;;;;;;;;;;461.60;1408.00;;;;;;4935790;29;19990;-75
2024/02/17 13:37:39;;;;;;;;;;;461.50;1382.40;;;;;;4919547;29;19913;-81
2024/02/17 13:40:08;;;;;;;;;;;461.50;1382.40;;;;;;4936538;29;19930;-78